Time;durP1;ratioP1;P1;durP2;ratioP2;P2;SDS_P1;SDS_P2;PMS_P1;PMS_P2;Temp;Humidity;BMP_temperature;BMP_pressure;BME280_temperature;BME280_humidity;BME280_pressure;Samples;Min_cycle;Max_cycle;Signal;HPM_P1;HPM_P2
2022/11/18 00:02:37;;;;;;;22.83;10.80;;;0.30;99.90;;;;;;4418178;28;660427;-63
2022/11/18 00:05:24;;;;;;;20.30;10.00;;;0.30;99.90;;;;;;4413976;28;659614;-63
2022/11/18 00:08:13;;;;;;;22.97;10.27;;;0.20;99.90;;;;;;4391197;28;660541;-63
2022/11/18 00:11:05;;;;;;;22.27;10.67;;;0.30;99.90;;;;;;4404715;28;659640;-64
2022/11/18 00:16:56;;;;;;;23.97;11.00;;;0.30;99.90;;;;;;4358239;28;658819;-64
2022/11/18 00:19:43;;;;;;;19.27;9.33;;;0.30;99.90;;;;;;4414639;28;661043;-62
2022/11/18 00:22:30;;;;;;;20.87;9.20;;;0.30;99.90;;;;;;4397077;28;658382;-64
2022/11/18 00:25:19;;;;;;;22.47;10.27;;;0.30;99.90;;;;;;4415674;28;659711;-63
2022/11/18 00:28:06;;;;;;;20.17;9.70;;;0.30;99.90;;;;;;4396330;28;659603;-63
2022/11/18 00:30:53;;;;;;;21.40;10.47;;;0.30;99.90;;;;;;4417429;28;659281;-63
2022/11/18 00:33:40;;;;;;;21.50;10.20;;;0.40;99.90;;;;;;4400699;28;659771;-65
2022/11/18 00:36:28;;;;;;;20.80;10.53;;;0.40;99.90;;;;;;4418855;28;660308;-62
2022/11/18 00:39:16;;;;;;;20.77;9.70;;;0.40;99.90;;;;;;4399254;28;659962;-64
2022/11/18 00:45:11;;;;;;;21.70;10.40;;;0.40;99.90;;;;;;4373978;28;659419;-63
2022/11/18 00:47:58;;;;;;;20.60;10.50;;;0.40;99.90;;;;;;4414394;28;660932;-63
2022/11/18 00:50:45;;;;;;;22.33;11.73;;;0.40;99.90;;;;;;4395324;28;659585;-65
2022/11/18 00:53:32;;;;;;;22.77;11.55;;;0.40;99.90;;;;;;4418316;28;659714;-63
2022/11/18 00:56:19;;;;;;;24.33;10.73;;;0.30;99.90;;;;;;4413590;28;660413;-63
2022/11/18 00:59:08;;;;;;;21.47;9.57;;;0.30;99.90;;;;;;4375683;28;659512;-62
2022/11/18 01:01:55;;;;;;;25.97;11.07;;;0.30;99.90;;;;;;4804944;28;658421;-63
2022/11/18 01:04:42;;;;;;;23.80;11.43;;;0.30;99.90;;;;;;4462897;28;658573;-63
2022/11/18 01:07:29;;;;;;;23.23;10.57;;;0.30;99.90;;;;;;4413198;28;660283;-63
2022/11/18 01:10:17;;;;;;;23.15;9.60;;;0.30;99.90;;;;;;4394067;28;659494;-63
2022/11/18 01:13:18;;;;;;;21.43;10.33;;;0.40;99.90;;;;;;4409294;28;658967;-63
2022/11/18 01:16:07;;;;;;;26.33;11.00;;;0.40;99.90;;;;;;4376509;28;659986;-65
2022/11/18 01:18:54;;;;;;;24.23;10.65;;;0.40;99.90;;;;;;4403572;28;660649;-63
2022/11/18 01:21:41;;;;;;;20.00;9.30;;;0.40;99.90;;;;;;4377805;28;659539;-63
2022/11/18 01:24:28;;;;;;;25.87;10.67;;;0.30;99.90;;;;;;4415060;28;659885;-62
2022/11/18 01:27:15;;;;;;;19.83;9.33;;;0.30;99.90;;;;;;4394580;28;659362;-64
2022/11/18 01:30:03;;;;;;;22.90;9.00;;;0.30;99.90;;;;;;4414375;28;660447;-63
2022/11/18 01:32:51;;;;;;;21.60;9.87;;;0.30;99.90;;;;;;4407271;28;658686;-65
2022/11/18 01:35:39;;;;;;;19.93;9.27;;;0.30;99.90;;;;;;4414983;28;659251;-63
2022/11/18 01:38:27;;;;;;;21.33;9.27;;;0.30;99.90;;;;;;4392534;28;658574;-62
2022/11/18 01:41:14;;;;;;;20.10;9.67;;;0.30;99.90;;;;;;4414688;28;658210;-63
2022/11/18 01:44:02;;;;;;;21.07;9.73;;;0.30;99.90;;;;;;4393284;28;658821;-63
2022/11/18 01:46:49;;;;;;;26.57;9.87;;;0.20;99.90;;;;;;4414621;28;659074;-63
2022/11/18 01:49:38;;;;;;;23.37;9.53;;;0.30;99.90;;;;;;4395000;28;658713;-63
2022/11/18 01:52:25;;;;;;;20.83;10.13;;;0.30;99.90;;;;;;4409025;28;658634;-65
2022/11/18 01:55:14;;;;;;;23.08;11.13;;;0.30;99.90;;;;;;4417665;28;660168;-63
2022/11/18 01:58:03;;;;;;;19.27;8.70;;;0.30;99.90;;;;;;4386829;28;659961;-63
2022/11/18 02:00:50;;;;;;;21.47;9.40;;;0.30;99.90;;;;;;4388115;28;658597;-63
2022/11/18 02:03:37;;;;;;;20.13;9.33;;;0.30;99.90;;;;;;4414711;28;659720;-63
2022/11/18 02:06:26;;;;;;;21.17;10.30;;;0.30;99.90;;;;;;4414495;28;658692;-63
2022/11/18 02:09:13;;;;;;;21.23;9.73;;;0.30;99.90;;;;;;4389662;28;660943;-63
2022/11/18 02:12:00;;;;;;;22.48;10.85;;;0.20;99.90;;;;;;4394882;28;658633;-65
2022/11/18 02:14:47;;;;;;;25.05;11.43;;;0.20;99.90;;;;;;4417231;28;660219;-63
2022/11/18 02:17:41;;;;;;;21.37;9.63;;;0.20;99.90;;;;;;4412850;28;659528;-63
2022/11/18 02:20:32;;;;;;;21.97;9.40;;;0.10;99.90;;;;;;4390918;28;659815;-63
2022/11/18 02:23:53;;;;;;;20.27;9.00;;;0.10;99.90;;;;;;4413815;28;659302;-65
2022/11/18 02:27:17;;;;;;;20.67;10.03;;;0.10;99.90;;;;;;4368944;28;659569;-63
2022/11/18 02:30:07;;;;;;;16.50;8.40;;;0.10;99.90;;;;;;4361644;28;660846;-62
2022/11/18 02:32:56;;;;;;;16.95;9.38;;;0.10;99.90;;;;;;4391035;28;658585;-63
2022/11/18 02:35:44;;;;;;;20.20;8.97;;;0.10;99.90;;;;;;4391080;28;660278;-63
2022/11/18 02:38:32;;;;;;;21.42;9.63;;;0.00;99.90;;;;;;4394710;28;659740;-63
2022/11/18 02:41:21;;;;;;;20.48;9.20;;;0.10;99.90;;;;;;4413319;28;658491;-63
2022/11/18 02:44:10;;;;;;;23.37;10.30;;;0.10;99.90;;;;;;4390658;28;659964;-62
2022/11/18 02:47:01;;;;;;;21.13;10.60;;;0.10;99.90;;;;;;4393542;28;660470;-63
2022/11/18 02:49:49;;;;;;;21.10;9.30;;;0.10;99.90;;;;;;4393214;28;661448;-63
2022/11/18 02:52:37;;;;;;;20.97;10.07;;;0.00;99.90;;;;;;4394489;28;658457;-63
2022/11/18 02:55:24;;;;;;;20.80;9.93;;;0.00;99.90;;;;;;4412420;28;659456;-63
2022/11/18 02:58:11;;;;;;;18.73;9.17;;;0.00;99.90;;;;;;4385282;28;658861;-63
2022/11/18 03:00:59;;;;;;;20.30;9.65;;;-0.10;99.90;;;;;;4595479;28;660190;-62
2022/11/18 03:03:49;;;;;;;24.43;10.73;;;0.00;99.90;;;;;;4672261;28;570182;-64
2022/11/18 03:06:37;;;;;;;21.80;9.88;;;0.00;99.90;;;;;;4392421;28;660012;-63
2022/11/18 03:09:27;;;;;;;19.33;9.40;;;0.00;99.90;;;;;;4412621;28;658637;-63
2022/11/18 03:12:18;;;;;;;18.47;9.40;;;0.00;99.90;;;;;;4389609;28;659296;-62
2022/11/18 03:15:11;;;;;;;22.33;10.53;;;0.00;99.90;;;;;;4375387;28;659678;-64
2022/11/18 03:18:00;;;;;;;20.37;8.63;;;0.00;99.90;;;;;;4388063;28;660738;-63
2022/11/18 03:20:50;;;;;;;20.08;8.75;;;0.00;99.90;;;;;;4393289;28;659191;-63
2022/11/18 03:23:40;;;;;;;20.80;9.00;;;0.00;99.90;;;;;;4389143;28;659543;-63
2022/11/18 03:26:29;;;;;;;17.63;9.33;;;0.00;99.90;;;;;;4389630;28;660415;-63
2022/11/18 03:29:18;;;;;;;19.60;8.80;;;-0.10;99.90;;;;;;4389762;28;658558;-63
2022/11/18 03:32:06;;;;;;;16.93;8.80;;;-0.10;99.90;;;;;;4391806;28;659642;-64
2022/11/18 03:34:57;;;;;;;17.73;8.10;;;0.00;99.90;;;;;;4411139;28;660686;-63
2022/11/18 03:37:45;;;;;;;22.57;10.30;;;-0.10;99.90;;;;;;4393631;28;659703;-64
2022/11/18 03:40:32;;;;;;;18.42;9.38;;;-0.10;99.90;;;;;;4391366;28;661671;-63
2022/11/18 03:43:21;;;;;;;19.17;9.37;;;-0.10;99.90;;;;;;4411589;28;660055;-62
2022/11/18 03:46:11;;;;;;;17.48;8.32;;;-0.10;99.90;;;;;;4387542;28;660820;-63
2022/11/18 03:48:58;;;;;;;16.23;8.10;;;-0.10;99.90;;;;;;4388997;28;661290;-62
2022/11/18 03:51:47;;;;;;;20.23;9.60;;;-0.10;99.90;;;;;;4392533;28;659615;-63
2022/11/18 03:54:35;;;;;;;17.67;8.17;;;-0.10;99.90;;;;;;4411245;28;659658;-63
2022/11/18 03:57:24;;;;;;;22.83;9.47;;;-0.10;99.90;;;;;;4374415;28;660533;-63
2022/11/18 04:00:12;;;;;;;19.57;9.20;;;-0.10;99.90;;;;;;4391329;28;659943;-63
2022/11/18 04:02:59;;;;;;;21.13;9.43;;;-0.10;99.90;;;;;;4411782;28;659385;-63
2022/11/18 04:05:46;;;;;;;22.50;9.83;;;-0.10;99.90;;;;;;4392958;28;660042;-62
2022/11/18 04:08:35;;;;;;;22.00;10.63;;;-0.10;99.90;;;;;;4411536;28;660666;-63
2022/11/18 04:14:30;;;;;;;20.63;9.47;;;-0.20;99.90;;;;;;4380829;28;661214;-64
2022/11/18 04:17:19;;;;;;;20.00;9.50;;;-0.20;99.90;;;;;;4411459;28;661418;-63
2022/11/18 04:20:07;;;;;;;19.87;8.90;;;-0.20;99.90;;;;;;4392216;28;659859;-63
2022/11/18 04:22:54;;;;;;;17.05;8.90;;;-0.20;99.90;;;;;;4411862;28;660034;-63
2022/11/18 04:25:41;;;;;;;22.70;9.67;;;-0.20;99.90;;;;;;4388711;28;659489;-63
2022/11/18 04:28:30;;;;;;;19.90;8.77;;;-0.20;99.90;;;;;;4411576;28;660409;-63
2022/11/18 04:31:17;;;;;;;19.97;9.73;;;-0.20;99.90;;;;;;4389561;28;661792;-63
2022/11/18 04:34:04;;;;;;;18.90;9.73;;;-0.10;99.90;;;;;;4414679;28;660280;-63
2022/11/18 04:36:51;;;;;;;16.37;8.50;;;-0.10;99.90;;;;;;4391668;28;660099;-64
2022/11/18 04:39:38;;;;;;;18.30;8.63;;;-0.10;99.90;;;;;;4414815;28;660502;-63
2022/11/18 04:42:25;;;;;;;16.83;8.20;;;-0.10;99.90;;;;;;4395518;28;659517;-64
2022/11/18 04:45:14;;;;;;;14.60;8.20;;;-0.20;99.90;;;;;;4413947;28;661362;-63
2022/11/18 04:48:01;;;;;;;17.73;8.67;;;-0.20;99.90;;;;;;4395852;28;660090;-63
2022/11/18 04:50:48;;;;;;;18.43;9.00;;;-0.20;99.90;;;;;;4414402;28;660986;-63
2022/11/18 04:53:35;;;;;;;16.57;8.80;;;-0.20;99.90;;;;;;4395636;28;659522;-63
2022/11/18 04:56:22;;;;;;;19.83;9.23;;;-0.10;99.90;;;;;;4414077;28;661042;-63
2022/11/18 04:59:10;;;;;;;20.37;9.63;;;-0.20;99.90;;;;;;4402589;28;660086;-63
2022/11/18 05:01:59;;;;;;;19.37;10.00;;;-0.10;99.90;;;;;;4807440;28;660868;-63
2022/11/18 05:04:46;;;;;;;20.80;9.90;;;-0.20;99.90;;;;;;4439785;28;660916;-63
2022/11/18 05:07:33;;;;;;;18.07;9.47;;;-0.20;99.90;;;;;;4413749;28;660888;-64
2022/11/18 05:10:20;;;;;;;16.07;8.60;;;-0.20;99.90;;;;;;4395343;28;659983;-63
2022/11/18 05:13:07;;;;;;;17.50;8.67;;;-0.20;99.90;;;;;;4413818;28;660822;-63
2022/11/18 05:15:54;;;;;;;17.47;9.77;;;-0.10;99.90;;;;;;4418156;28;660515;-63
2022/11/18 05:18:42;;;;;;;17.27;9.30;;;-0.10;99.90;;;;;;4394850;28;659749;-63
2022/11/18 05:21:29;;;;;;;17.17;9.27;;;-0.10;99.90;;;;;;4414085;28;660283;-63
2022/11/18 05:24:16;;;;;;;17.83;8.90;;;-0.10;99.90;;;;;;4379268;28;660117;-64
2022/11/18 05:27:03;;;;;;;20.67;9.13;;;-0.10;99.90;;;;;;4413634;28;660667;-63
2022/11/18 05:29:51;;;;;;;19.67;10.13;;;-0.10;99.90;;;;;;4394706;28;659765;-63
2022/11/18 05:32:38;;;;;;;21.60;10.33;;;0.00;99.90;;;;;;4415150;28;661170;-63
2022/11/18 05:35:26;;;;;;;18.80;9.00;;;-0.10;99.90;;;;;;4398079;28;659593;-64
2022/11/18 05:38:13;;;;;;;25.50;9.60;;;0.00;99.90;;;;;;4413575;28;660082;-63
2022/11/18 05:41:01;;;;;;;21.27;9.50;;;-0.10;99.90;;;;;;4395924;28;658471;-63
2022/11/18 05:43:47;;;;;;;20.97;9.70;;;-0.10;99.90;;;;;;4416238;28;661545;-63
2022/11/18 05:46:34;;;;;;;17.90;8.93;;;-0.10;99.90;;;;;;4413269;28;660020;-63
2022/11/18 05:49:21;;;;;;;19.83;8.93;;;-0.20;99.90;;;;;;4394470;28;659991;-63
2022/11/18 05:52:09;;;;;;;21.53;10.27;;;-0.20;99.90;;;;;;4413389;28;660641;-62
2022/11/18 05:54:56;;;;;;;22.10;11.00;;;-0.20;99.90;;;;;;4393330;28;660593;-63
2022/11/18 05:57:43;;;;;;;17.70;10.07;;;-0.20;99.90;;;;;;4412397;28;661553;-63
2022/11/18 06:00:31;;;;;;;20.93;10.27;;;-0.20;99.90;;;;;;4393197;28;660935;-63
2022/11/18 06:03:20;;;;;;;19.63;9.27;;;-0.10;99.90;;;;;;4412057;28;661171;-63
2022/11/18 06:06:08;;;;;;;18.90;9.40;;;-0.20;99.90;;;;;;4390249;28;661478;-63
2022/11/18 06:08:58;;;;;;;18.77;8.40;;;-0.10;99.90;;;;;;4407388;28;659607;-64
2022/11/18 06:11:47;;;;;;;17.50;8.87;;;-0.10;99.90;;;;;;4395576;28;659892;-65
2022/11/18 06:14:37;;;;;;;17.80;9.23;;;-0.10;99.90;;;;;;4410497;28;659428;-64
2022/11/18 06:17:25;;;;;;;22.30;10.13;;;-0.10;99.90;;;;;;4412468;28;660216;-63
2022/11/18 06:20:12;;;;;;;21.90;9.77;;;-0.10;99.90;;;;;;4388787;28;662124;-63
2022/11/18 06:23:00;;;;;;;19.00;9.03;;;-0.10;99.90;;;;;;4412748;28;659414;-62
2022/11/18 06:25:49;;;;;;;20.60;9.47;;;-0.10;99.90;;;;;;4390157;28;660938;-62
2022/11/18 06:28:36;;;;;;;20.50;9.70;;;-0.10;99.90;;;;;;4394319;28;659608;-64
2022/11/18 06:31:23;;;;;;;25.45;10.90;;;-0.10;99.90;;;;;;4412635;28;661746;-62
2022/11/18 06:34:10;;;;;;;22.87;11.50;;;-0.10;99.90;;;;;;4392238;28;661282;-64
2022/11/18 06:36:57;;;;;;;28.30;11.60;;;-0.10;99.90;;;;;;4415802;28;661858;-63
2022/11/18 06:39:44;;;;;;;22.37;10.47;;;0.00;99.90;;;;;;4411202;28;660559;-62
2022/11/18 06:45:37;;;;;;;17.77;9.07;;;-0.10;99.90;;;;;;4365252;28;661679;-63
2022/11/18 06:48:24;;;;;;;19.97;9.47;;;-0.10;99.90;;;;;;4412013;28;659836;-62
2022/11/18 06:51:11;;;;;;;37.53;17.53;;;0.00;99.90;;;;;;4393480;28;660409;-63
2022/11/18 06:53:58;;;;;;;23.90;12.00;;;0.10;99.90;;;;;;4411868;28;660611;-62
2022/11/18 06:56:46;;;;;;;22.13;11.47;;;0.10;99.90;;;;;;4393163;28;660324;-63
2022/11/18 06:59:34;;;;;;;18.70;9.83;;;0.10;99.90;;;;;;4382973;28;661135;-63
2022/11/18 07:02:21;;;;;;;16.73;8.43;;;0.10;99.90;;;;;;4822791;28;659024;-63
2022/11/18 07:05:08;;;;;;;22.53;9.47;;;0.10;99.90;;;;;;4395084;28;660560;-62
2022/11/18 07:07:55;;;;;;;21.73;10.70;;;0.10;99.90;;;;;;4376313;28;658944;-64
2022/11/18 07:10:42;;;;;;;17.50;8.93;;;0.10;99.90;;;;;;4393427;28;661505;-63
2022/11/18 07:13:30;;;;;;;22.53;11.20;;;0.00;99.90;;;;;;4390497;28;658831;-65
2022/11/18 07:16:19;;;;;;;21.60;11.17;;;0.00;99.90;;;;;;4393820;28;661023;-63
2022/11/18 07:19:10;;;;;;;20.57;10.97;;;0.10;99.90;;;;;;4371313;28;661203;-62
2022/11/18 07:21:58;;;;;;;24.73;12.13;;;0.00;99.90;;;;;;4364392;28;661445;-63
2022/11/18 07:24:45;;;;;;;24.93;10.60;;;0.00;99.90;;;;;;4375224;28;659875;-64
2022/11/18 07:27:32;;;;;;;23.17;11.40;;;0.00;99.90;;;;;;4393811;28;661674;-62
2022/11/18 07:30:20;;;;;;;19.23;8.97;;;0.00;99.90;;;;;;4391228;28;659964;-64
2022/11/18 07:33:09;;;;;;;22.73;10.57;;;0.00;99.90;;;;;;4394978;28;659790;-62
2022/11/18 07:35:56;;;;;;;25.97;11.53;;;-0.10;99.90;;;;;;4374050;28;659910;-63
2022/11/18 07:38:43;;;;;;;26.90;12.07;;;-0.10;99.90;;;;;;4392112;28;661789;-62
2022/11/18 07:41:30;;;;;;;31.27;12.82;;;-0.10;99.90;;;;;;4372795;28;660906;-64
2022/11/18 07:44:17;;;;;;;24.07;11.43;;;-0.10;99.90;;;;;;4392233;28;661805;-63
2022/11/18 07:47:05;;;;;;;22.57;10.13;;;-0.10;99.90;;;;;;4391996;28;660611;-65
2022/11/18 07:49:53;;;;;;;23.88;11.25;;;0.00;99.90;;;;;;4396367;28;660496;-63
2022/11/18 07:52:41;;;;;;;24.90;11.27;;;0.10;99.90;;;;;;4374750;28;659794;-63
2022/11/18 07:55:28;;;;;;;26.10;12.37;;;0.10;99.90;;;;;;4397897;28;661180;-63
2022/11/18 07:58:15;;;;;;;29.07;15.57;;;0.10;99.90;;;;;;4393215;28;660306;-64
2022/11/18 08:01:07;;;;;;;18.83;9.15;;;0.10;99.90;;;;;;4415552;28;659395;-63
2022/11/18 08:03:54;;;;;;;23.07;10.63;;;0.10;99.90;;;;;;4389897;28;659640;-63
2022/11/18 08:06:42;;;;;;;19.50;9.37;;;0.10;99.90;;;;;;4396032;28;660120;-63
2022/11/18 08:09:30;;;;;;;21.10;10.27;;;0.10;99.90;;;;;;4415660;28;658611;-64
2022/11/18 08:12:17;;;;;;;20.70;10.05;;;0.10;99.90;;;;;;4418995;28;659359;-63
2022/11/18 08:15:04;;;;;;;24.83;11.73;;;0.10;99.90;;;;;;4415078;28;659511;-63
2022/11/18 08:17:52;;;;;;;29.33;13.20;;;0.00;99.90;;;;;;4392046;28;660611;-63
2022/11/18 08:20:39;;;;;;;30.63;13.90;;;0.00;99.90;;;;;;4414886;28;660154;-62
2022/11/18 08:23:27;;;;;;;24.93;11.90;;;0.10;99.90;;;;;;4395480;28;660014;-64
2022/11/18 08:26:14;;;;;;;18.03;9.03;;;0.20;99.90;;;;;;4414788;28;660323;-64
2022/11/18 08:29:01;;;;;;;20.63;10.37;;;0.20;99.90;;;;;;4397092;28;658723;-63
2022/11/18 08:31:48;;;;;;;20.20;8.93;;;0.30;99.90;;;;;;4414311;28;660268;-62
2022/11/18 08:34:36;;;;;;;19.47;8.03;;;0.30;99.90;;;;;;4396855;28;659356;-64
2022/11/18 08:37:23;;;;;;;18.63;8.27;;;0.30;99.90;;;;;;4415815;28;659247;-63
2022/11/18 08:40:12;;;;;;;17.13;7.70;;;0.30;99.90;;;;;;4408562;28;659080;-64
2022/11/18 08:42:59;;;;;;;20.23;8.35;;;0.30;99.90;;;;;;4409189;28;659050;-62
2022/11/18 08:45:46;;;;;;;18.97;7.80;;;0.40;99.90;;;;;;4396526;28;658579;-63
2022/11/18 08:48:33;;;;;;;18.30;7.50;;;0.40;99.90;;;;;;4415613;28;660378;-62
2022/11/18 08:51:20;;;;;;;17.60;8.23;;;0.30;99.90;;;;;;4396543;28;658502;-64
2022/11/18 08:54:07;;;;;;;17.73;8.80;;;0.30;99.90;;;;;;4415557;28;660083;-63
2022/11/18 08:56:56;;;;;;;19.47;10.00;;;0.30;99.90;;;;;;4415440;28;659271;-63
2022/11/18 08:59:43;;;;;;;19.53;8.60;;;0.30;99.90;;;;;;4348119;28;660853;-63
2022/11/18 09:02:30;;;;;;;22.53;9.03;;;0.30;99.90;;;;;;4346797;28;659606;-64
2022/11/18 09:05:17;;;;;;;19.25;9.70;;;0.30;99.90;;;;;;4368022;28;658286;-63
2022/11/18 09:08:05;;;;;;;21.10;10.30;;;0.30;99.90;;;;;;4374761;28;659053;-63
2022/11/18 09:10:52;;;;;;;23.10;9.87;;;0.30;99.90;;;;;;4346742;28;660819;-62
2022/11/18 09:13:40;;;;;;;22.97;10.60;;;0.20;99.90;;;;;;4379278;28;659477;-63
2022/11/18 09:16:29;;;;;;;27.13;10.90;;;0.30;99.90;;;;;;4356110;28;661231;-62
2022/11/18 09:19:16;;;;;;;27.53;11.17;;;0.30;99.90;;;;;;4358800;28;659561;-63
2022/11/18 09:22:03;;;;;;;24.17;11.60;;;0.30;99.90;;;;;;4379150;28;660865;-63
2022/11/18 09:24:50;;;;;;;23.93;11.83;;;0.30;99.90;;;;;;4360488;28;660243;-64
2022/11/18 09:27:37;;;;;;;25.17;11.77;;;0.30;99.90;;;;;;4379149;28;661095;-63
2022/11/18 09:30:26;;;;;;;21.57;10.00;;;0.40;99.90;;;;;;4375452;28;659608;-64
2022/11/18 09:33:14;;;;;;;26.73;10.40;;;0.30;99.90;;;;;;4378954;28;660735;-62
2022/11/18 09:36:01;;;;;;;21.10;9.43;;;0.40;99.90;;;;;;4350164;28;660444;-63
2022/11/18 09:38:49;;;;;;;19.40;9.10;;;0.30;99.90;;;;;;4377349;28;659502;-62
2022/11/18 09:41:44;;;;;;;17.77;8.43;;;0.30;99.90;;;;;;4361281;28;658655;-63
2022/11/18 09:44:53;;;;;;;18.17;8.97;;;0.30;99.90;;;;;;4355095;28;659549;-63
2022/11/18 09:47:41;;;;;;;24.90;10.87;;;0.20;99.90;;;;;;4354996;28;659600;-64
2022/11/18 09:50:28;;;;;;;26.00;10.53;;;0.10;99.90;;;;;;4395191;28;660280;-63
2022/11/18 09:53:19;;;;;;;25.83;11.80;;;0.00;99.90;;;;;;4376558;28;659384;-63
2022/11/18 09:56:10;;;;;;;22.50;11.20;;;0.00;99.90;;;;;;4373184;28;659623;-64
2022/11/18 09:58:57;;;;;;;21.33;10.20;;;0.10;99.90;;;;;;4387409;28;661683;-63
2022/11/18 10:01:44;;;;;;;22.00;10.13;;;0.10;99.90;;;;;;4413546;28;660388;-62
2022/11/18 10:04:33;;;;;;;24.20;10.67;;;0.10;99.90;;;;;;4394069;28;659672;-63
2022/11/18 10:07:21;;;;;;;22.97;9.47;;;0.10;99.90;;;;;;4401537;28;659987;-64
2022/11/18 10:10:12;;;;;;;27.27;13.63;;;0.10;99.90;;;;;;4414590;28;659771;-63
2022/11/18 10:13:02;;;;;;;24.37;10.50;;;0.00;99.90;;;;;;4390094;28;660400;-63
2022/11/18 10:15:53;;;;;;;24.43;10.47;;;0.00;99.90;;;;;;4390059;28;659714;-63
2022/11/18 10:18:44;;;;;;;24.10;10.93;;;0.00;99.90;;;;;;4369396;28;660309;-63
2022/11/18 10:21:42;;;;;;;23.97;11.67;;;0.00;99.90;;;;;;4392979;28;659696;-63
2022/11/18 10:24:32;;;;;;;22.50;9.53;;;0.10;99.90;;;;;;4390219;28;660570;-63
2022/11/18 10:27:19;;;;;;;22.93;9.60;;;0.10;99.90;;;;;;4391147;28;659374;-62
2022/11/18 10:30:11;;;;;;;20.30;9.43;;;0.10;99.90;;;;;;4390566;28;660261;-63
2022/11/18 10:32:59;;;;;;;19.10;8.60;;;0.10;99.90;;;;;;4391315;28;659738;-62
2022/11/18 10:35:46;;;;;;;17.43;7.97;;;0.10;99.90;;;;;;4394858;28;660241;-64
2022/11/18 10:38:34;;;;;;;19.48;8.18;;;0.10;99.90;;;;;;4414014;28;660457;-62
2022/11/18 10:41:22;;;;;;;17.00;7.77;;;0.00;99.90;;;;;;4394805;28;658548;-63
2022/11/18 10:44:30;;;;;;;19.80;8.40;;;0.10;99.90;;;;;;4413603;28;659058;-63
2022/11/18 10:47:28;;;;;;;29.20;10.73;;;0.00;99.90;;;;;;4364821;28;660302;-63
2022/11/18 10:50:33;;;;;;;17.10;7.90;;;0.10;99.90;;;;;;4368315;28;660233;-63
2022/11/18 10:53:29;;;;;;;25.40;10.80;;;0.10;99.90;;;;;;4372012;28;658832;-64
2022/11/18 10:56:18;;;;;;;24.07;10.47;;;0.10;99.90;;;;;;4370338;28;660488;-63
2022/11/18 10:59:05;;;;;;;28.40;11.47;;;0.20;99.90;;;;;;4393190;28;659538;-63
2022/11/18 11:02:03;;;;;;;64.57;21.63;;;0.20;99.90;;;;;;4809118;28;661813;-62
2022/11/18 11:04:51;;;;;;;33.77;14.60;;;0.10;99.90;;;;;;4415447;28;659639;-63
2022/11/18 11:07:39;;;;;;;32.53;15.40;;;0.10;99.90;;;;;;4411379;28;660991;-63
2022/11/18 11:10:26;;;;;;;40.73;18.40;;;0.10;99.90;;;;;;4392331;28;659774;-63
2022/11/18 11:13:15;;;;;;;50.20;18.63;;;0.10;99.90;;;;;;4411194;28;660584;-63
2022/11/18 11:16:03;;;;;;;43.93;18.60;;;-0.10;99.90;;;;;;4388456;28;660928;-62
2022/11/18 11:18:53;;;;;;;39.00;17.27;;;-0.10;99.90;;;;;;4390927;28;662009;-63
2022/11/18 11:21:40;;;;;;;41.05;17.67;;;-0.20;99.90;;;;;;4390996;28;660950;-64
2022/11/18 11:24:28;;;;;;;38.20;18.13;;;-0.20;99.90;;;;;;4413748;28;661536;-62
2022/11/18 11:27:21;;;;;;;35.67;17.03;;;-0.20;99.90;;;;;;4398535;28;660832;-64
2022/11/18 11:30:16;;;;;;;44.75;18.40;;;-0.30;99.90;;;;;;4386716;28;662143;-62
2022/11/18 11:33:21;;;;;;;43.90;18.77;;;-0.30;99.90;;;;;;4387021;28;661076;-62
2022/11/18 11:36:25;;;;;;;43.57;17.80;;;-0.40;99.90;;;;;;4386585;28;661543;-62
2022/11/18 11:39:46;;;;;;;40.73;17.50;;;-0.40;99.90;;;;;;4391102;28;661343;-63
2022/11/18 11:42:39;;;;;;;40.20;17.20;;;-0.40;99.90;;;;;;4386703;28;661194;-63
2022/11/18 11:45:30;;;;;;;44.35;17.90;;;-0.60;99.90;;;;;;4363809;28;661943;-62
2022/11/18 11:48:24;;;;;;;44.47;18.20;;;-0.60;99.90;;;;;;4386628;28;661580;-62
2022/11/18 11:51:14;;;;;;;44.10;19.00;;;-0.70;99.90;;;;;;4364159;28;661488;-62
2022/11/18 11:54:25;;;;;;;42.93;19.50;;;-0.60;99.90;;;;;;4391583;28;660801;-62
2022/11/18 11:57:15;;;;;;;43.03;17.93;;;-0.60;99.90;;;;;;4364515;28;661435;-63
2022/11/18 12:00:03;;;;;;;44.50;19.43;;;-0.70;99.90;;;;;;4391015;28;661408;-62
2022/11/18 12:03:02;;;;;;;39.47;17.53;;;-0.70;99.90;;;;;;4391880;28;660643;-62
2022/11/18 12:05:49;;;;;;;39.03;16.17;;;-0.70;99.90;;;;;;4387390;28;660639;-62
2022/11/18 12:08:36;;;;;;;34.63;15.47;;;-0.60;99.90;;;;;;4391706;28;660747;-63
2022/11/18 12:11:27;;;;;;;39.90;17.55;;;-0.70;99.90;;;;;;4410371;28;662170;-63
2022/11/18 12:14:19;;;;;;;36.53;15.43;;;-0.70;99.90;;;;;;4387567;28;660799;-62
2022/11/18 12:17:10;;;;;;;40.43;18.40;;;-0.70;99.90;;;;;;4368740;28;661353;-63
2022/11/18 12:19:59;;;;;;;40.97;17.13;;;-0.60;99.90;;;;;;4387286;28;663272;-63
2022/11/18 12:23:11;;;;;;;42.70;17.60;;;-0.60;99.90;;;;;;4391579;28;661536;-63
2022/11/18 12:26:02;;;;;;;40.80;18.27;;;-0.60;99.90;;;;;;4387718;28;661725;-62
2022/11/18 12:28:50;;;;;;;40.30;16.70;;;-0.60;99.90;;;;;;4382058;28;660361;-64
2022/11/18 12:31:37;;;;;;;38.83;14.50;;;-0.70;99.90;;;;;;4414365;28;660359;-62
2022/11/18 12:34:30;;;;;;;35.67;16.33;;;-0.70;99.90;;;;;;4410150;28;661102;-62
2022/11/18 12:37:59;;;;;;;36.73;16.07;;;-0.70;99.90;;;;;;4363947;28;661544;-62
2022/11/18 12:40:46;;;;;;;42.07;18.43;;;-0.70;99.90;;;;;;4294773;28;661447;-62
2022/11/18 12:44:05;;;;;;;37.63;15.90;;;-0.80;99.90;;;;;;4410066;28;661706;-62
2022/11/18 12:46:55;;;;;;;39.50;17.57;;;-0.70;99.90;;;;;;4364380;28;661482;-63
2022/11/18 12:50:11;;;;;;;35.93;15.07;;;-0.80;99.90;;;;;;4387061;28;661996;-63
2022/11/18 12:52:59;;;;;;;34.67;16.53;;;-0.90;99.90;;;;;;4389012;28;661797;-63
2022/11/18 12:55:46;;;;;;;39.50;15.07;;;-1.00;99.90;;;;;;4394099;28;660858;-63
2022/11/18 12:58:34;;;;;;;35.37;15.80;;;-0.90;99.90;;;;;;4412907;28;660637;-62
2022/11/18 13:01:22;;;;;;;36.53;15.82;;;-1.00;99.90;;;;;;4678686;28;661509;-62
2022/11/18 13:04:14;;;;;;;42.17;17.57;;;-1.00;99.90;;;;;;4598771;28;537994;-62
2022/11/18 13:07:02;;;;;;;35.37;15.43;;;-1.00;99.90;;;;;;4367145;28;661597;-62
2022/11/18 13:09:50;;;;;;;35.43;14.80;;;-1.00;99.90;;;;;;4411267;28;660653;-63
2022/11/18 13:12:37;;;;;;;36.87;16.10;;;-1.00;99.90;;;;;;4391166;28;661833;-62
2022/11/18 13:18:29;;;;;;;33.55;14.27;;;-1.10;99.90;;;;;;4390159;28;660825;-62
2022/11/18 13:24:26;;;;;;;38.63;15.83;;;-1.10;99.90;;;;;;4393921;28;660546;-63
2022/11/18 13:27:24;;;;;;;44.10;18.07;;;-1.10;99.90;;;;;;4412863;28;662328;-62
2022/11/18 13:30:12;;;;;;;40.17;16.23;;;-1.20;99.90;;;;;;4368335;28;661684;-63
2022/11/18 13:32:59;;;;;;;35.13;14.90;;;-1.20;99.90;;;;;;4412730;28;660798;-63
2022/11/18 13:35:46;;;;;;;44.30;19.57;;;-1.20;99.90;;;;;;4393270;28;661657;-63
2022/11/18 13:38:34;;;;;;;44.93;18.90;;;-1.20;99.90;;;;;;4412527;28;660619;-62
2022/11/18 13:41:23;;;;;;;43.30;17.70;;;-1.30;99.90;;;;;;4392956;28;661160;-63
2022/11/18 13:44:15;;;;;;;43.73;18.80;;;-1.30;99.90;;;;;;4395226;28;661004;-64
2022/11/18 13:47:06;;;;;;;35.37;16.07;;;-1.30;99.90;;;;;;4393300;28;661704;-62
2022/11/18 13:50:00;;;;;;;43.80;18.33;;;-1.30;99.90;;;;;;4389329;28;661168;-63
2022/11/18 13:52:58;;;;;;;44.07;18.43;;;-1.40;99.90;;;;;;4366281;28;661838;-63
2022/11/18 13:55:46;;;;;;;46.90;18.40;;;-1.40;99.90;;;;;;4376904;28;660560;-64
2022/11/18 13:58:36;;;;;;;42.70;17.13;;;-1.40;99.90;;;;;;4411931;28;662224;-62
2022/11/18 14:01:26;;;;;;;41.80;16.83;;;-1.30;99.90;;;;;;4388826;28;662509;-62
2022/11/18 14:04:17;;;;;;;46.57;19.30;;;-1.30;99.90;;;;;;4389166;28;661709;-62
2022/11/18 14:07:16;;;;;;;46.77;20.13;;;-1.30;99.90;;;;;;4389076;28;661028;-63
2022/11/18 14:10:04;;;;;;;44.23;17.57;;;-1.40;99.90;;;;;;4389162;28;661286;-62
2022/11/18 14:12:57;;;;;;;46.33;18.20;;;-1.40;99.90;;;;;;4392944;28;660865;-62
2022/11/18 14:15:45;;;;;;;50.07;20.50;;;-1.40;99.90;;;;;;4411187;28;660758;-64
2022/11/18 14:18:35;;;;;;;42.63;17.77;;;-1.40;99.90;;;;;;4411549;28;661805;-63
2022/11/18 14:21:26;;;;;;;58.47;21.73;;;-1.50;99.90;;;;;;4392859;28;662097;-63
2022/11/18 14:24:14;;;;;;;44.30;17.30;;;-1.40;99.90;;;;;;4388298;28;661094;-62
2022/11/18 14:27:29;;;;;;;51.67;20.63;;;-1.50;99.90;;;;;;4390414;28;660808;-63
2022/11/18 14:30:33;;;;;;;53.60;20.80;;;-1.50;99.90;;;;;;4365898;28;661375;-63
2022/11/18 14:33:20;;;;;;;44.20;17.70;;;-1.50;99.90;;;;;;4373118;28;661215;-64
2022/11/18 14:36:12;;;;;;;44.47;18.80;;;-1.50;99.90;;;;;;4411547;28;661393;-62
2022/11/18 14:38:59;;;;;;;44.37;18.57;;;-1.60;99.90;;;;;;4388634;28;661010;-62